Map

Track Data

SID SEASON NUMBER BASIN SUBBASIN NAME ISO_TIME NATURE LAT LON WMO_WIND WMO_PRES WMO_AGENCY TRACK_TYPE DIST2LAND LANDFALL IFLAG USA_AGENCY USA_ATCF_ID USA_LAT USA_LON USA_RECORD USA_STATUS USA_WIND USA_PRES USA_SSHS USA_R34_NE USA_R34_SE USA_R34_SW USA_R34_NW USA_R50_NE USA_R50_SE USA_R50_SW USA_R50_NW USA_R64_NE USA_R64_SE USA_R64_SW USA_R64_NW USA_POCI USA_ROCI USA_RMW USA_EYE TOKYO_LAT TOKYO_LON TOKYO_GRADE TOKYO_WIND TOKYO_PRES TOKYO_R50_DIR TOKYO_R50_LONG TOKYO_R50_SHORT TOKYO_R30_DIR TOKYO_R30_LONG TOKYO_R30_SHORT TOKYO_LAND CMA_LAT CMA_LON CMA_CAT CMA_WIND CMA_PRES HKO_LAT HKO_LON HKO_CAT HKO_WIND HKO_PRES NEWDELHI_LAT NEWDELHI_LON NEWDELHI_GRADE NEWDELHI_WIND NEWDELHI_PRES NEWDELHI_CI NEWDELHI_DP NEWDELHI_POCI REUNION_LAT REUNION_LON REUNION_TYPE REUNION_WIND REUNION_PRES REUNION_TNUM REUNION_CI REUNION_RMW REUNION_R34_NE REUNION_R34_SE REUNION_R34_SW REUNION_R34_NW REUNION_R50_NE REUNION_R50_SE REUNION_R50_SW REUNION_R50_NW REUNION_R64_NE REUNION_R64_SE REUNION_R64_SW REUNION_R64_NW BOM_LAT BOM_LON BOM_TYPE BOM_WIND BOM_PRES BOM_TNUM BOM_CI BOM_RMW BOM_R34_NE BOM_R34_SE BOM_R34_SW BOM_R34_NW BOM_R50_NE BOM_R50_SE BOM_R50_SW BOM_R50_NW BOM_R64_NE BOM_R64_SE BOM_R64_SW BOM_R64_NW BOM_ROCI BOM_POCI BOM_EYE BOM_POS_METHOD BOM_PRES_METHOD NADI_LAT NADI_LON NADI_CAT NADI_WIND NADI_PRES WELLINGTON_LAT WELLINGTON_LON WELLINGTON_WIND WELLINGTON_PRES DS824_LAT DS824_LON DS824_STAGE DS824_WIND DS824_PRES TD9636_LAT TD9636_LON TD9636_STAGE TD9636_WIND TD9636_PRES TD9635_LAT TD9635_LON TD9635_WIND TD9635_PRES TD9635_ROCI NEUMANN_LAT NEUMANN_LON NEUMANN_CLASS NEUMANN_WIND NEUMANN_PRES MLC_LAT MLC_LON MLC_CLASS MLC_WIND MLC_PRES USA_GUST BOM_GUST BOM_GUST_PER REUNION_GUST REUNION_GUST_PER USA_SEAHGT USA_SEARAD_NE USA_SEARAD_SE USA_SEARAD_SW USA_SEARAD_NW STORM_SPEED STORM_DIR
1878100S12066 1878 4 SI MM NOT_NAMED 1878-04-10 00:00:00 TS -12.2000 65.7000 main 1229 1157 _________O____ -1 -12.2000 65.7000 TC 16 196
1878100S12066 1878 4 SI MM NOT_NAMED 1878-04-10 03:00:00 TS -12.9526 65.4828 main 1149 1079 _________P____ -1 -12.9526 65.4828 TC 16 195
1878100S12066 1878 4 SI MM NOT_NAMED 1878-04-10 06:00:00 TS -13.7000 65.3000 main 1079 1020 _________O____ -1 -13.7000 65.3000 TC 15 191
1878100S12066 1878 4 SI MM NOT_NAMED 1878-04-10 09:00:00 TS -14.4425 65.1774 main 1020 956 _________P____ -1 -14.4425 65.1774 TC 15 187
1878100S12066 1878 4 SI MM NOT_NAMED 1878-04-10 12:00:00 TS -15.2000 65.1000 main 956 897 _________O____ -1 -15.2000 65.1000 TC 16 185
1878100S12066 1878 4 SI MM NOT_NAMED 1878-04-10 15:00:00 TS -16.0000 65.0276 main 897 853 _________P____ -1 -16.0000 65.0276 TC 16 183
1878100S12066 1878 4 SI MM NOT_NAMED 1878-04-10 18:00:00 TS -16.8000 65.0000 main 853 819 _________O____ -1 -16.8000 65.0000 TC 16 181
1878100S12066 1878 4 SI MM NOT_NAMED 1878-04-10 21:00:00 TS -17.5650 65.0275 main 815 798 _________P____ -1 -17.5650 65.0275 TC 15 176
1878100S12066 1878 4 SI MM NOT_NAMED 1878-04-11 00:00:00 TS -18.3000 65.1000 main 798 783 _________O____ -1 -18.3000 65.1000 TC 15 174
1878100S12066 1878 4 SI MM NOT_NAMED 1878-04-11 03:00:00 TS -19.0150 65.1777 main 788 780 _________P____ -1 -19.0150 65.1777 TC 14 172
1878100S12066 1878 4 SI MM NOT_NAMED 1878-04-11 06:00:00 TS -19.7000 65.3000 main 786 784 _________O____ -1 -19.7000 65.3000 TC 14 168
1878100S12066 1878 4 SI MM NOT_NAMED 1878-04-11 09:00:00 TS -20.3650 65.4776 main 802 802 _________P____ -1 -20.3650 65.4776 TC 14 164
1878100S12066 1878 4 SI MM NOT_NAMED 1878-04-11 12:00:00 TS -21.0000 65.7000 main 825 825 _________O____ -1 -21.0000 65.7000 TC 13 161
1878100S12066 1878 4 SI MM NOT_NAMED 1878-04-11 15:00:00 TS -21.6075 65.9352 main 853 853 _________P____ -1 -21.6075 65.9352 TC 13 159
1878100S12066 1878 4 SI MM NOT_NAMED 1878-04-11 18:00:00 TS -22.2000 66.2000 main 895 895 _________O____ -1 -22.2000 66.2000 TC 13 158
1878100S12066 1878 4 SI MM NOT_NAMED 1878-04-11 21:00:00 TS -22.7697 66.4487 main 931 931 _________P____ -1 -22.7697 66.4487 TC 13 155
1878100S12066 1878 4 SI MM NOT_NAMED 1878-04-12 00:00:00 TS -23.4000 66.8000 main 990 990 _________O____ -1 -23.4000 66.8000 TC 16 150
1878100S12066 1878 4 SI MM NOT_NAMED 1878-04-12 03:00:00 TS -24.1776 67.3472 main 1069 1069 _________P____ -1 -24.1776 67.3472 TC 19 146
1878100S12066 1878 4 SI MM NOT_NAMED 1878-04-12 06:00:00 TS -25.0000 68.0000 main 1168 1168 _________O____ -1 -25.0000 68.0000 TC 20 144
1878100S12066 1878 4 SI MM NOT_NAMED 1878-04-12 09:00:00 TS -25.7874 68.6501 main 1269 1269 _________P____ -1 -25.7874 68.6501 TC 19 142
1878100S12066 1878 4 SI MM NOT_NAMED 1878-04-12 12:00:00 TS -26.5000 69.3000 main 1358 1358 _________O____ -1 -26.5000 69.3000 TC 17 139
1878100S12066 1878 4 SI MM NOT_NAMED 1878-04-12 15:00:00 TS -27.0870 69.9011 main 1441 1441 _________P____ -1 -27.0870 69.9011 TC 15 136
1878100S12066 1878 4 SI MM NOT_NAMED 1878-04-12 18:00:00 TS -27.6000 70.5000 main 1520 1520 _________O____ -1 -27.6000 70.5000 TC 15 133
1878100S12066 1878 4 SI MM NOT_NAMED 1878-04-12 21:00:00 TS -28.1008 71.1360 main 1599 1599 _________P____ -1 -28.1008 71.1360 TC 15 131
1878100S12066 1878 4 SI MM NOT_NAMED 1878-04-13 00:00:00 TS -28.6000 71.8000 main 1686 _________O____ -1 -28.6000 71.8000 TC 15 131

About IBTrACS Database

This database is a web-friendly format of International Best Track Archive for Climate Stewardship (IBTrACS), a global best track data archive curated by NOAA dating back to 1842.

Updated: 2021-10-19